Terminal Aerodrome Forecast
Issued by NWS

Home | Current Version | Previous Version | Text Only | Print | Product List | Glossary On
Versions: 1 2 3 4 5 6 7 8 9 10 11 12 13 14 15 16 17 18 19 20 21 22 23 24 25 26
251
FTUS41 KCAR 131106 AAD
TAFBHB
TAF AMD
KBHB 131106Z 1311/1406 33008KT 6SM -SHSN SCT025 OVC035
     FM131700 05010KT 3SM -SHSN OVC020
     FM140500 33012G25KT P6SM OVC035
      AMD LTD TO CLD VIS AND WIND=

USA.gov is the U.S. government's official web portal to all federal, state and local government web resources and services.